createdAt,value
2019-03-11T00:00:59.731Z,73.22
2019-03-11T00:03:30.430Z,73.81
2019-03-11T00:06:01.216Z,73.61
2019-03-11T00:08:31.965Z,73.05
2019-03-11T00:11:02.567Z,72.93
2019-03-11T00:13:33.220Z,73.17
2019-03-11T00:16:05.098Z,73.47
2019-03-11T00:18:42.570Z,72.76
2019-03-11T00:21:13.170Z,72.63
2019-03-11T00:23:43.897Z,71.74
2019-03-11T00:26:14.701Z,70.66
2019-03-11T00:28:45.277Z,70.91
2019-03-11T00:31:17.903Z,72.85
2019-03-11T00:33:48.537Z,70.89
2019-03-11T00:36:28.429Z,69.79
2019-03-11T00:39:25.163Z,71.41
2019-03-11T00:41:56.005Z,68.31
2019-03-11T00:44:26.695Z,68.64
2019-03-11T00:46:57.371Z,68.56
2019-03-11T00:49:27.926Z,68.05
2019-03-11T00:52:26.341Z,68.71
2019-03-11T00:55:08.184Z,68.63
2019-03-11T00:57:41.977Z,68.82
2019-03-11T01:00:22.182Z,69.21
2019-03-11T01:03:02.702Z,70.03
2019-03-11T01:05:33.266Z,70.55
2019-03-11T01:08:03.940Z,70.93
2019-03-11T01:10:34.583Z,70.23
2019-03-11T01:13:05.268Z,70.85
2019-03-11T01:15:35.915Z,71.60
2019-03-11T01:18:06.499Z,71.68
2019-03-11T01:20:37.077Z,73.35
2019-03-11T01:23:07.796Z,71.20
2019-03-11T01:25:38.408Z,72.68
2019-03-11T01:28:08.931Z,73.37
2019-03-11T01:30:42.782Z,73.04
2019-03-11T01:33:13.396Z,73.77
2019-03-11T01:35:55.215Z,73.66
2019-03-11T01:38:25.818Z,73.26
2019-03-11T01:40:57.406Z,73.15
2019-03-11T01:43:28.103Z,72.78
2019-03-11T01:45:58.610Z,72.33
2019-03-11T01:48:35.962Z,72.48
2019-03-11T01:51:08.561Z,73.25
2019-03-11T01:53:44.469Z,72.78
2019-03-11T01:56:15.370Z,72.52
2019-03-11T01:58:46.044Z,72.94
2019-03-11T02:01:16.693Z,73.10
2019-03-11T02:03:47.382Z,72.97
2019-03-11T02:06:17.972Z,72.61
2019-03-11T02:08:48.619Z,72.17
2019-03-11T02:11:26.498Z,72.15
2019-03-11T02:13:58.162Z,71.45
2019-03-11T02:16:28.832Z,71.29
2019-03-11T02:18:59.501Z,71.96
2019-03-11T02:21:30.094Z,71.27
2019-03-11T02:24:10.610Z,71.47
2019-03-11T02:26:41.297Z,71.74
2019-03-11T02:29:31.290Z,72.08
2019-03-11T02:32:05.850Z,72.28
2019-03-11T02:34:36.597Z,73.34
2019-03-11T02:37:07.307Z,72.90
2019-03-11T02:39:37.949Z,72.62
2019-03-11T02:42:25.048Z,71.93
2019-03-11T02:44:55.728Z,71.81
2019-03-11T02:47:30.340Z,72.46
2019-03-11T02:50:06.025Z,72.60
2019-03-11T02:52:39.792Z,72.16
2019-03-11T02:55:10.385Z,72.15
2019-03-11T02:57:40.911Z,71.79
2019-03-11T03:00:13.172Z,72.42
2019-03-11T03:02:54.728Z,72.49
2019-03-11T03:05:33.463Z,73.60
2019-03-11T03:08:07.269Z,72.67
2019-03-11T03:10:37.938Z,73.01
2019-03-11T03:13:08.590Z,72.74
2019-03-11T03:15:39.271Z,73.28
2019-03-11T03:18:09.839Z,72.73
2019-03-11T03:20:40.493Z,73.31
2019-03-11T03:23:11.066Z,73.56
2019-03-11T03:25:45.664Z,74.31
2019-03-11T03:28:16.402Z,72.83
2019-03-11T03:30:47.067Z,73.36
2019-03-11T03:33:17.711Z,73.44
2019-03-11T03:35:50.300Z,73.28
2019-03-11T03:38:30.392Z,73.66
2019-03-11T03:40:53.271Z,73.45
2019-03-11T03:43:23.923Z,73.16
2019-03-11T03:45:57.888Z,73.49
2019-03-11T03:48:38.706Z,73.22
2019-03-11T03:51:26.047Z,73.18
2019-03-11T03:53:56.756Z,73.72
2019-03-11T03:56:27.345Z,73.85
2019-03-11T03:58:58.069Z,74.01
2019-03-11T04:01:28.831Z,73.39
2019-03-11T04:04:07.638Z,74.20
2019-03-11T04:06:38.175Z,73.65
2019-03-11T04:09:34.117Z,73.42
2019-03-11T04:12:08.910Z,75.24
2019-03-11T04:14:39.480Z,76.36
2019-03-11T04:17:16.659Z,75.34
2019-03-11T04:19:52.444Z,75.49
2019-03-11T04:22:23.168Z,75.54
2019-03-11T04:24:53.723Z,76.00
2019-03-11T04:27:24.430Z,74.41
2019-03-11T04:29:55.088Z,75.25
2019-03-11T04:32:25.829Z,72.83
2019-03-11T04:34:56.570Z,72.73
2019-03-11T04:37:27.172Z,73.25
2019-03-11T04:39:57.840Z,73.16
2019-03-11T04:42:28.447Z,75.42
2019-03-11T04:44:59.032Z,74.12
2019-03-11T04:47:41.114Z,73.54
2019-03-11T04:50:13.393Z,74.15
2019-03-11T04:52:46.146Z,72.01
2019-03-11T04:55:17.111Z,70.99
2019-03-11T04:57:50.600Z,71.18
2019-03-11T05:00:26.016Z,71.88
2019-03-11T05:02:56.652Z,71.84
2019-03-11T05:05:27.385Z,71.71
2019-03-11T05:07:58.097Z,71.80
2019-03-11T05:10:29.817Z,71.32
2019-03-11T05:13:07.462Z,71.98
2019-03-11T05:15:38.117Z,71.93
2019-03-11T05:18:08.716Z,72.37
2019-03-11T05:20:39.395Z,72.60
2019-03-11T05:23:10.015Z,72.27
2019-03-11T05:25:44.654Z,71.95
2019-03-11T05:28:27.639Z,70.94
2019-03-11T05:30:58.376Z,71.88
2019-03-11T05:33:35.189Z,72.09
2019-03-11T05:36:05.851Z,72.04
2019-03-11T05:38:58.471Z,71.84
2019-03-11T05:41:29.159Z,71.98
2019-03-11T05:43:59.787Z,73.04
2019-03-11T05:46:30.355Z,73.07
2019-03-11T05:49:06.214Z,73.96
2019-03-11T05:51:51.642Z,74.38
2019-03-11T05:54:22.106Z,75.15
2019-03-11T05:56:59.060Z,75.64
2019-03-11T05:59:42.633Z,76.70
2019-03-11T06:02:13.259Z,76.21
2019-03-11T06:04:43.894Z,77.35
2019-03-11T06:07:14.510Z,77.44
2019-03-11T06:09:49.318Z,77.15
2019-03-11T06:12:27.960Z,77.51
2019-03-11T06:14:58.625Z,77.16
2019-03-11T06:17:29.232Z,78.35
2019-03-11T06:20:13.893Z,78.12
2019-03-11T06:22:44.494Z,79.29
2019-03-11T06:25:15.197Z,78.33
2019-03-11T06:27:47.855Z,78.85
2019-03-11T06:30:33.948Z,78.23
2019-03-11T06:33:04.614Z,77.11
2019-03-11T06:35:40.443Z,77.29
2019-03-11T06:38:19.146Z,78.30
2019-03-11T06:40:55.436Z,78.26
2019-03-11T06:43:32.361Z,78.21
2019-03-11T06:46:03.124Z,78.70
2019-03-11T06:48:33.723Z,78.60
2019-03-11T06:51:04.485Z,78.64
2019-03-11T06:53:35.057Z,78.93
2019-03-11T06:56:05.746Z,80.04
2019-03-11T06:58:36.433Z,79.78
2019-03-11T07:01:07.137Z,80.40
2019-03-11T07:03:37.739Z,80.32
2019-03-11T07:06:08.376Z,80.16
2019-03-11T07:08:38.950Z,80.87
2019-03-11T07:11:09.543Z,80.87
2019-03-11T07:13:40.203Z,80.24
2019-03-11T07:16:10.872Z,79.49
2019-03-11T07:18:41.575Z,79.37
2019-03-11T07:21:12.151Z,78.67
2019-03-11T07:23:43.901Z,78.69
2019-03-11T07:26:14.756Z,78.59
2019-03-11T07:28:45.342Z,78.63
2019-03-11T07:31:27.818Z,78.07
2019-03-11T07:34:02.544Z,79.53
2019-03-11T07:37:03.137Z,79.53
2019-03-11T07:39:33.790Z,79.68
2019-03-11T07:42:04.494Z,80.38
2019-03-11T07:44:34.974Z,80.00
2019-03-11T07:47:05.648Z,80.04
2019-03-11T07:49:36.245Z,79.29
2019-03-11T07:52:06.838Z,78.41
2019-03-11T07:54:37.499Z,78.70
2019-03-11T07:57:08.166Z,78.78
2019-03-11T07:59:41.084Z,77.99
2019-03-11T08:02:18.261Z,78.45
2019-03-11T08:05:02.680Z,77.31
2019-03-11T08:07:34.406Z,76.87
2019-03-11T08:10:05.978Z,77.55
2019-03-11T08:12:36.618Z,77.74
2019-03-11T08:15:10.585Z,77.90
2019-03-11T08:17:41.325Z,76.95
2019-03-11T08:20:12.219Z,77.02
2019-03-11T08:22:47.784Z,77.57
2019-03-11T08:25:18.413Z,76.14
2019-03-11T08:27:50.075Z,76.97
2019-03-11T08:30:20.875Z,77.49
2019-03-11T08:32:57.372Z,76.59
2019-03-11T08:35:28.141Z,77.11
2019-03-11T08:38:04.648Z,76.93
2019-03-11T08:40:31.277Z,77.56
2019-03-11T08:43:03.962Z,76.93
2019-03-11T08:45:51.094Z,76.27
2019-03-11T08:48:23.950Z,76.75
2019-03-11T08:50:55.607Z,76.56
2019-03-11T08:53:26.291Z,76.10
2019-03-11T08:55:57.017Z,75.47
2019-03-11T08:58:27.771Z,75.31
2019-03-11T09:00:58.391Z,75.54
2019-03-11T09:03:29.158Z,76.09
2019-03-11T09:05:59.859Z,77.12
2019-03-11T09:08:42.832Z,76.66
2019-03-11T09:11:13.451Z,76.42
2019-03-11T09:13:44.112Z,75.88
2019-03-11T09:16:16.305Z,75.88
2019-03-11T09:18:47.048Z,75.67
2019-03-11T09:21:17.814Z,75.76
2019-03-11T09:23:48.515Z,75.61
2019-03-11T09:26:19.278Z,75.54
2019-03-11T09:28:50.113Z,74.71
2019-03-11T09:31:25.497Z,74.81
2019-03-11T09:34:13.477Z,74.75
2019-03-11T09:36:44.159Z,74.63
2019-03-11T09:39:14.753Z,74.59
2019-03-11T09:41:45.325Z,74.57
2019-03-11T09:44:16.019Z,73.30
2019-03-11T09:46:52.891Z,74.63
2019-03-11T09:49:24.730Z,74.27
2019-03-11T09:51:55.429Z,73.05
2019-03-11T09:54:27.196Z,73.43
2019-03-11T09:57:01.081Z,72.65
2019-03-11T09:59:31.699Z,72.33
2019-03-11T10:02:12.597Z,71.67
2019-03-11T10:04:44.338Z,72.66
2019-03-11T10:07:14.986Z,73.28
2019-03-11T10:09:46.645Z,72.37
2019-03-11T10:12:21.243Z,71.34
2019-03-11T10:14:51.998Z,71.78
2019-03-11T10:17:27.924Z,70.56
2019-03-11T10:19:58.562Z,71.30
2019-03-11T10:22:29.294Z,70.09
2019-03-11T10:25:00.013Z,69.41
2019-03-11T10:27:31.977Z,69.62
2019-03-11T10:30:02.697Z,69.77
2019-03-11T10:32:41.085Z,67.94
2019-03-11T10:35:30.821Z,68.18
2019-03-11T10:38:02.383Z,65.35
2019-03-11T10:40:33.245Z,64.01
2019-03-11T10:43:03.829Z,62.65
2019-03-11T10:45:34.484Z,61.92
2019-03-11T10:48:05.255Z,60.96
2019-03-11T10:50:35.824Z,60.68
2019-03-11T10:53:06.468Z,60.17
2019-03-11T10:55:37.051Z,61.04
2019-03-11T10:58:07.620Z,60.71
2019-03-11T11:00:38.519Z,60.17
2019-03-11T11:03:09.240Z,59.50
2019-03-11T11:05:51.199Z,58.92
2019-03-11T11:08:21.690Z,59.04
2019-03-11T11:10:52.376Z,59.83
2019-03-11T11:13:24.039Z,60.30
2019-03-11T11:15:54.695Z,59.99
2019-03-11T11:18:25.480Z,60.39
2019-03-11T11:20:56.069Z,59.72
2019-03-11T11:23:26.919Z,60.55
2019-03-11T11:25:57.653Z,59.36
2019-03-11T11:28:28.409Z,57.73
2019-03-11T11:30:59.076Z,57.66
2019-03-11T11:33:29.763Z,57.68
2019-03-11T11:36:00.380Z,58.13
2019-03-11T11:38:30.999Z,58.00
2019-03-11T11:41:01.813Z,57.56
2019-03-11T11:43:32.711Z,59.05
2019-03-11T11:46:03.442Z,58.66
2019-03-11T11:48:34.087Z,58.73
2019-03-11T11:51:04.744Z,56.98
2019-03-11T11:53:36.430Z,57.72
2019-03-11T11:56:08.867Z,58.72
2019-03-11T11:58:48.595Z,56.31
2019-03-11T12:01:19.278Z,56.98
2019-03-11T12:03:51.826Z,54.96
2019-03-11T12:06:22.434Z,55.26
2019-03-11T12:08:53.141Z,53.93
2019-03-11T12:11:23.718Z,54.45
2019-03-11T12:13:54.373Z,53.58
2019-03-11T12:16:25.179Z,53.56
2019-03-11T12:18:55.809Z,54.01
2019-03-11T12:21:26.502Z,54.71
2019-03-11T12:23:57.224Z,54.66
2019-03-11T12:26:41.133Z,57.08
2019-03-11T12:29:11.770Z,58.82
2019-03-11T12:31:42.336Z,58.08
2019-03-11T12:34:18.644Z,55.66
2019-03-11T12:36:49.347Z,55.56
2019-03-11T12:39:35.334Z,54.52
2019-03-11T12:42:05.986Z,53.93
2019-03-11T12:44:36.611Z,53.58
2019-03-11T12:47:07.344Z,53.66
2019-03-11T12:49:37.966Z,55.26
2019-03-11T12:52:08.719Z,53.25
2019-03-11T12:54:39.374Z,54.08
2019-03-11T12:57:10.073Z,54.45
2019-03-11T12:59:40.994Z,56.59
2019-03-11T13:02:18.587Z,59.81
2019-03-11T13:04:49.180Z,61.35
2019-03-11T13:07:19.891Z,63.34
2019-03-11T13:09:50.517Z,61.07
2019-03-11T13:12:21.122Z,62.17
2019-03-11T13:14:51.887Z,60.39
2019-03-11T13:17:22.541Z,60.05
2019-03-11T13:19:54.214Z,60.77
2019-03-11T13:22:24.825Z,60.04
2019-03-11T13:24:55.679Z,59.44
2019-03-11T13:27:31.786Z,60.36
2019-03-11T13:30:05.116Z,59.59
2019-03-11T13:32:36.856Z,60.05
2019-03-11T13:35:07.936Z,60.09
2019-03-11T13:37:38.655Z,59.81
2019-03-11T13:40:09.468Z,61.34
2019-03-11T13:42:40.138Z,66.53
2019-03-11T13:45:13.119Z,69.18
2019-03-11T13:47:48.839Z,71.14
2019-03-11T13:50:19.719Z,70.85
2019-03-11T13:52:56.729Z,70.81
2019-03-11T13:55:28.594Z,70.67
2019-03-11T13:58:01.213Z,71.40
2019-03-11T14:00:31.870Z,69.55
2019-03-11T14:03:06.627Z,68.58
2019-03-11T14:05:37.317Z,67.70
2019-03-11T14:08:07.877Z,64.51
2019-03-11T14:10:38.480Z,62.04
2019-03-11T14:13:09.122Z,60.82
2019-03-11T14:15:41.787Z,59.73
2019-03-11T14:18:12.469Z,61.29
2019-03-11T14:20:43.228Z,61.26
2019-03-11T14:23:13.760Z,60.77
2019-03-11T14:25:44.575Z,60.72
2019-03-11T14:28:15.251Z,60.15
2019-03-11T14:30:45.927Z,61.34
2019-03-11T14:33:25.626Z,60.88
2019-03-11T14:35:56.342Z,59.61
2019-03-11T14:38:27.013Z,58.09
2019-03-11T14:41:00.792Z,57.60
2019-03-11T14:43:31.465Z,56.95
2019-03-11T14:46:04.135Z,60.40
2019-03-11T14:48:36.932Z,62.76
2019-03-11T14:51:09.681Z,61.84
2019-03-11T14:53:42.590Z,62.76
2019-03-11T14:56:14.307Z,60.80
2019-03-11T14:58:44.959Z,62.11
2019-03-11T15:01:15.637Z,63.06
2019-03-11T15:03:46.291Z,61.66
2019-03-11T15:06:17.038Z,60.45
2019-03-11T15:08:47.728Z,62.33
2019-03-11T15:11:20.407Z,62.58
2019-03-11T15:13:50.939Z,63.29
2019-03-11T15:16:23.637Z,62.33
2019-03-11T15:18:54.335Z,62.70
2019-03-11T15:21:25.993Z,62.29
2019-03-11T15:23:56.690Z,62.20
2019-03-11T15:26:27.420Z,60.52
2019-03-11T15:28:59.026Z,60.48
2019-03-11T15:31:29.854Z,60.92
2019-03-11T15:34:00.440Z,60.52
2019-03-11T15:36:33.671Z,60.24
2019-03-11T15:39:10.631Z,61.90
2019-03-11T15:41:48.141Z,61.65
2019-03-11T15:44:18.811Z,62.32
2019-03-11T15:46:49.570Z,63.11
2019-03-11T15:49:26.495Z,61.56
2019-03-11T15:51:57.556Z,60.81
2019-03-11T15:54:28.411Z,60.71
2019-03-11T15:56:59.600Z,61.18
2019-03-11T15:59:35.935Z,60.21
2019-03-11T16:02:06.569Z,61.07
2019-03-11T16:04:37.295Z,63.21
2019-03-11T16:07:11.454Z,61.97
2019-03-11T16:09:46.175Z,60.99
2019-03-11T16:12:18.929Z,60.68
2019-03-11T16:14:50.058Z,59.87
2019-03-11T16:17:21.014Z,59.84
2019-03-11T16:19:51.787Z,59.19
2019-03-11T16:22:27.118Z,59.32
2019-03-11T16:24:57.763Z,57.78
2019-03-11T16:27:28.545Z,58.78
2019-03-11T16:30:03.482Z,58.54
2019-03-11T16:32:37.424Z,59.02
2019-03-11T16:35:07.224Z,59.38
2019-03-11T16:37:40.945Z,59.80
2019-03-11T16:40:12.193Z,60.15
2019-03-11T16:42:43.081Z,61.46
2019-03-11T16:45:16.197Z,62.09
2019-03-11T16:47:46.834Z,62.78
2019-03-11T16:50:17.745Z,64.15
2019-03-11T16:52:52.283Z,65.14
2019-03-11T16:55:41.149Z,66.95
2019-03-11T16:58:12.150Z,68.57
2019-03-11T17:00:44.796Z,68.72
2019-03-11T17:03:21.033Z,68.79
2019-03-11T17:05:51.911Z,69.16
2019-03-11T17:08:22.945Z,69.48
2019-03-11T17:11:00.864Z,71.41
2019-03-11T17:13:31.789Z,73.07
2019-03-11T17:16:02.615Z,75.12
2019-03-11T17:18:36.920Z,74.55
2019-03-11T17:21:14.954Z,74.56
2019-03-11T17:23:46.701Z,75.82
2019-03-11T17:26:22.900Z,76.44
2019-03-11T17:28:53.739Z,76.97
2019-03-11T17:31:24.785Z,76.38
2019-03-11T17:33:55.626Z,75.66
2019-03-11T17:36:26.536Z,76.49
2019-03-11T17:38:58.425Z,76.88
2019-03-11T17:41:29.428Z,74.12
2019-03-11T17:44:02.449Z,74.51
2019-03-11T17:46:33.719Z,74.19
2019-03-11T17:49:05.685Z,73.09
2019-03-11T17:51:36.585Z,71.83
2019-03-11T17:54:07.511Z,71.94
2019-03-11T17:56:38.101Z,73.01
2019-03-11T17:59:08.874Z,71.05
2019-03-11T18:01:47.574Z,70.10
2019-03-11T18:04:18.245Z,70.52
2019-03-11T18:06:49.096Z,70.60
2019-03-11T18:09:20.723Z,70.37
2019-03-11T18:11:51.651Z,70.42
2019-03-11T18:14:24.463Z,69.47
2019-03-11T18:16:59.536Z,70.32
2019-03-11T18:19:33.383Z,70.62
2019-03-11T18:22:05.194Z,69.55
2019-03-11T18:24:35.916Z,71.71
2019-03-11T18:27:06.598Z,72.17
2019-03-11T18:29:39.324Z,73.32
2019-03-11T18:32:09.970Z,73.67
2019-03-11T18:34:40.770Z,73.73
2019-03-11T18:37:20.874Z,74.78
2019-03-11T18:39:51.595Z,75.74
2019-03-11T18:42:25.621Z,76.68
2019-03-11T18:44:54.786Z,77.25
2019-03-11T18:47:25.543Z,77.83
2019-03-11T18:49:57.188Z,78.27
2019-03-11T18:52:27.814Z,79.24
2019-03-11T18:54:58.415Z,79.52
2019-03-11T18:57:29.082Z,77.66
2019-03-11T18:59:59.795Z,77.44
2019-03-11T19:02:32.441Z,78.29
2019-03-11T19:05:09.488Z,77.58
2019-03-11T19:07:40.403Z,77.95
2019-03-11T19:10:22.473Z,77.00
2019-03-11T19:12:53.283Z,78.21
2019-03-11T19:15:24.103Z,76.47
2019-03-11T19:17:54.725Z,76.67
2019-03-11T19:20:25.403Z,76.92
2019-03-11T19:22:58.187Z,76.14
2019-03-11T19:25:28.805Z,76.11
2019-03-11T19:27:59.437Z,76.23
2019-03-11T19:30:30.080Z,75.92
2019-03-11T19:33:00.676Z,75.85
2019-03-11T19:35:31.313Z,75.18
2019-03-11T19:38:01.953Z,75.90
2019-03-11T19:40:49.004Z,76.02
2019-03-11T19:43:20.738Z,74.67
2019-03-11T19:45:53.332Z,75.63
2019-03-11T19:48:29.846Z,75.97
2019-03-11T19:51:01.509Z,74.46
2019-03-11T19:53:36.001Z,74.27
2019-03-11T19:56:08.636Z,74.37
2019-03-11T19:58:39.294Z,74.17
2019-03-11T20:01:09.979Z,73.63
2019-03-11T20:03:40.714Z,72.27
2019-03-11T20:06:13.724Z,71.35
2019-03-11T20:08:44.432Z,70.60
2019-03-11T20:11:15.156Z,71.30
2019-03-11T20:13:46.822Z,70.02
2019-03-11T20:16:17.574Z,70.55
2019-03-11T20:18:48.408Z,70.15
2019-03-11T20:21:19.018Z,69.43
2019-03-11T20:23:49.709Z,70.00
2019-03-11T20:26:20.577Z,70.97
2019-03-11T20:28:53.326Z,70.83
2019-03-11T20:31:25.066Z,70.67
2019-03-11T20:33:55.820Z,69.86
2019-03-11T20:36:26.592Z,69.05
2019-03-11T20:39:00.484Z,70.44
2019-03-11T20:41:33.034Z,70.11
2019-03-11T20:44:14.718Z,69.96
2019-03-11T20:46:45.408Z,70.25
2019-03-11T20:49:16.024Z,68.47
2019-03-11T20:51:46.697Z,69.84
2019-03-11T20:54:17.412Z,69.55
2019-03-11T20:56:50.065Z,68.97
2019-03-11T20:59:20.761Z,69.37
2019-03-11T21:01:52.501Z,68.97
2019-03-11T21:04:23.539Z,69.70
2019-03-11T21:06:54.256Z,68.55
2019-03-11T21:09:47.206Z,68.78
2019-03-11T21:12:18.587Z,68.96
2019-03-11T21:14:49.401Z,69.83
2019-03-11T21:17:29.540Z,69.49
2019-03-11T21:20:13.521Z,69.21
2019-03-11T21:22:43.447Z,69.89
2019-03-11T21:25:24.314Z,70.23
2019-03-11T21:27:57.050Z,70.16
2019-03-11T21:30:27.682Z,69.94
2019-03-11T21:32:58.431Z,69.97
2019-03-11T21:35:35.165Z,69.55
2019-03-11T21:38:09.020Z,68.98
2019-03-11T21:40:39.741Z,70.42
2019-03-11T21:43:10.465Z,70.70
2019-03-11T21:45:42.160Z,70.96
2019-03-11T21:48:18.079Z,70.42
2019-03-11T21:50:48.851Z,69.93
2019-03-11T21:53:19.505Z,70.13
2019-03-11T21:55:51.264Z,69.73
2019-03-11T21:58:23.024Z,70.01
2019-03-11T22:00:54.136Z,71.01
2019-03-11T22:03:36.118Z,71.53
2019-03-11T22:06:06.877Z,70.07
2019-03-11T22:08:45.130Z,70.44
2019-03-11T22:11:17.436Z,70.09
2019-03-11T22:13:53.543Z,71.37
2019-03-11T22:16:24.353Z,69.74
2019-03-11T22:18:54.994Z,68.94
2019-03-11T22:21:26.009Z,71.28
2019-03-11T22:24:00.903Z,71.36
2019-03-11T22:26:43.312Z,70.52
2019-03-11T22:29:14.586Z,71.57
2019-03-11T22:31:45.440Z,71.05
2019-03-11T22:34:16.129Z,71.30
2019-03-11T22:36:48.742Z,70.83
2019-03-11T22:39:20.386Z,69.89
2019-03-11T22:41:58.449Z,70.32
2019-03-11T22:44:36.953Z,70.55
2019-03-11T22:47:18.294Z,70.27
2019-03-11T22:49:49.085Z,70.09
2019-03-11T22:52:19.801Z,70.02
2019-03-11T22:54:50.449Z,70.09
2019-03-11T22:57:21.896Z,70.02
2019-03-11T23:00:35.527Z,70.34
2019-03-11T23:03:10.584Z,68.35
2019-03-11T23:05:58.254Z,69.59
2019-03-11T23:08:28.637Z,69.94
2019-03-11T23:11:16.254Z,70.26
2019-03-11T23:14:11.030Z,70.65
2019-03-11T23:16:41.707Z,69.93
2019-03-11T23:19:13.209Z,70.01
2019-03-11T23:21:44.227Z,70.29
2019-03-11T23:24:15.127Z,69.75
2019-03-11T23:26:51.659Z,70.12
2019-03-11T23:29:23.590Z,71.26
2019-03-11T23:31:56.629Z,70.74
2019-03-11T23:34:27.335Z,71.64
2019-03-11T23:37:00.394Z,72.03
2019-03-11T23:39:35.615Z,71.86
2019-03-11T23:42:13.120Z,71.94
2019-03-11T23:44:43.835Z,72.08
2019-03-11T23:47:14.561Z,71.55
2019-03-11T23:49:45.143Z,72.28
2019-03-11T23:52:15.861Z,72.22
2019-03-11T23:54:58.981Z,72.56
2019-03-11T23:57:29.599Z,72.82
